createdAt,value
2022-11-05T00:00:45.231Z,93447.06
2022-11-05T00:01:46.678Z,93451.38
2022-11-05T00:02:48.132Z,93452.94
2022-11-05T00:03:49.620Z,93458.53
2022-11-05T00:04:51.088Z,93461.50
2022-11-05T00:05:53.771Z,93466.38
2022-11-05T00:06:58.107Z,93462.31
2022-11-05T00:08:02.616Z,93467.03
2022-11-05T00:09:05.136Z,93479.59
2022-11-05T00:10:14.170Z,93475.19
2022-11-05T00:11:18.282Z,93471.94
2022-11-05T00:12:20.060Z,93473.94
2022-11-05T00:13:21.588Z,93475.34
2022-11-05T00:14:23.591Z,93483.84
2022-11-05T00:15:24.991Z,93480.94
2022-11-05T00:16:27.751Z,93481.91
2022-11-05T00:17:29.181Z,93477.00
2022-11-05T00:18:30.903Z,93480.22
2022-11-05T00:19:32.305Z,93483.34
2022-11-05T00:20:33.704Z,93480.22
2022-11-05T00:21:36.872Z,93478.41
2022-11-05T00:22:38.360Z,93480.22
2022-11-05T00:23:39.778Z,93482.50
2022-11-05T00:24:41.224Z,93477.72
2022-11-05T00:25:42.680Z,93485.81
2022-11-05T00:26:44.117Z,93486.63
2022-11-05T00:27:47.300Z,93480.06
2022-11-05T00:28:48.724Z,93488.38
2022-11-05T00:29:50.185Z,93480.06
2022-11-05T00:30:51.681Z,93491.69
2022-11-05T00:31:54.452Z,93484.53
2022-11-05T00:33:00.849Z,93490.28
2022-11-05T00:34:02.305Z,93494.41
2022-11-05T00:35:04.474Z,93493.97
2022-11-05T00:36:07.752Z,93487.50
2022-11-05T00:37:09.156Z,93492.72
2022-11-05T00:38:10.729Z,93490.97
2022-11-05T00:39:12.166Z,93493.25
2022-11-05T00:40:14.783Z,93498.97
2022-11-05T00:41:16.203Z,93496.03
2022-11-05T00:42:17.667Z,93497.97
2022-11-05T00:43:19.107Z,93497.84
2022-11-05T00:44:20.514Z,93495.56
2022-11-05T00:45:21.936Z,93499.50
2022-11-05T00:46:23.374Z,93498.69
2022-11-05T00:47:26.162Z,93490.88
2022-11-05T00:48:27.622Z,93503.06
2022-11-05T00:49:29.060Z,93497.97
2022-11-05T00:50:31.382Z,93499.63
2022-11-05T00:51:32.796Z,93505.56
2022-11-05T00:52:34.196Z,93503.59
2022-11-05T00:53:35.732Z,93510.03
2022-11-05T00:54:37.159Z,93503.41
2022-11-05T00:55:39.986Z,93504.19
2022-11-05T00:56:41.420Z,93500.22
2022-11-05T00:57:42.852Z,93514.63
2022-11-05T00:58:44.252Z,93513.00
2022-11-05T00:59:45.674Z,93513.13
2022-11-05T01:00:50.097Z,93517.25
2022-11-05T01:01:51.585Z,93514.00
2022-11-05T01:02:57.422Z,93518.75
2022-11-05T01:03:58.880Z,93513.78
2022-11-05T01:05:00.308Z,93517.41
2022-11-05T01:06:08.309Z,93516.59
2022-11-05T01:07:09.767Z,93511.16
2022-11-05T01:08:11.587Z,93513.25
2022-11-05T01:09:13.022Z,93515.94
2022-11-05T01:10:14.494Z,93516.56
2022-11-05T01:11:18.290Z,93511.22
2022-11-05T01:12:19.720Z,93517.16
2022-11-05T01:13:23.883Z,93517.16
2022-11-05T01:14:25.312Z,93518.44
2022-11-05T01:15:26.794Z,93523.00
2022-11-05T01:16:28.264Z,93526.28
2022-11-05T01:17:29.722Z,93527.78
2022-11-05T01:18:32.476Z,93521.22
2022-11-05T01:19:33.952Z,93526.66
2022-11-05T01:20:35.406Z,93528.00
2022-11-05T01:21:36.878Z,93526.66
2022-11-05T01:22:38.408Z,93531.34
2022-11-05T01:23:40.095Z,93527.91
2022-11-05T01:24:41.573Z,93532.19
2022-11-05T01:25:43.843Z,93532.69
2022-11-05T01:26:45.273Z,93535.16
2022-11-05T01:27:46.695Z,93538.47
2022-11-05T01:28:50.575Z,93545.91
2022-11-05T01:29:52.115Z,93539.22
2022-11-05T01:30:55.389Z,93542.81
2022-11-05T01:31:56.820Z,93540.38
2022-11-05T01:32:58.524Z,93539.72
2022-11-05T01:34:01.546Z,93543.13
2022-11-05T01:35:03.413Z,93541.47
2022-11-05T01:36:05.195Z,93542.47
2022-11-05T01:37:06.659Z,93540.66
2022-11-05T01:38:08.070Z,93538.25
2022-11-05T01:39:09.488Z,93540.38
2022-11-05T01:40:13.386Z,93541.47
2022-11-05T01:41:15.042Z,93537.78
2022-11-05T01:42:21.901Z,93547.28
2022-11-05T01:43:23.864Z,93543.84
2022-11-05T01:44:54.739Z,93547.13
2022-11-05T01:45:58.347Z,93545.50
2022-11-05T01:46:59.783Z,93545.66
2022-11-05T01:48:06.658Z,93545.97
2022-11-05T01:49:17.950Z,93547.13
2022-11-05T01:50:31.978Z,93544.97
2022-11-05T01:51:33.417Z,93553.50
2022-11-05T01:52:35.550Z,93550.69
2022-11-05T01:53:40.928Z,93557.38
2022-11-05T01:54:43.149Z,93549.69
2022-11-05T01:55:47.751Z,93560.50
2022-11-05T01:56:54.529Z,93554.44
2022-11-05T01:57:58.915Z,93557.00
2022-11-05T01:59:03.402Z,93558.47
2022-11-05T02:00:05.965Z,93557.63
2022-11-05T02:01:07.547Z,93565.97
2022-11-05T02:02:09.705Z,93561.69
2022-11-05T02:03:14.381Z,93564.97
2022-11-05T02:04:25.945Z,93566.13
2022-11-05T02:05:27.290Z,93561.81
2022-11-05T02:06:32.547Z,93561.25
2022-11-05T02:07:34.016Z,93559.97
2022-11-05T02:08:48.622Z,93565.06
2022-11-05T02:09:55.616Z,93561.66
2022-11-05T02:10:58.190Z,93552.91
2022-11-05T02:11:59.629Z,93558.63
2022-11-05T02:13:01.067Z,93555.06
2022-11-05T02:14:03.239Z,93567.22
2022-11-05T02:15:06.286Z,93556.19
2022-11-05T02:16:15.696Z,93550.38
2022-11-05T02:17:27.570Z,93559.94
2022-11-05T02:18:39.320Z,93556.84
2022-11-05T02:20:13.907Z,93549.47
2022-11-05T02:21:42.896Z,93552.09
2022-11-05T02:23:05.356Z,93557.41
2022-11-05T02:24:40.467Z,93552.91
2022-11-05T02:26:10.216Z,93556.16
2022-11-05T02:27:20.719Z,93556.00
2022-11-05T02:28:49.411Z,93551.97
2022-11-05T02:30:07.818Z,93557.09
2022-11-05T02:31:17.505Z,93556.94
2022-11-05T02:32:32.201Z,93559.56
2022-11-05T02:33:44.130Z,93557.09
2022-11-05T02:34:54.807Z,93551.88
2022-11-05T02:36:22.169Z,93552.75
2022-11-05T02:37:36.709Z,93556.00
2022-11-05T02:38:42.812Z,93561.63
2022-11-05T02:39:49.823Z,93561.09
2022-11-05T02:41:01.916Z,93557.47
2022-11-05T02:42:11.175Z,93562.78
2022-11-05T02:43:21.476Z,93566.47
2022-11-05T02:44:29.888Z,93562.31
2022-11-05T02:45:41.133Z,93561.47
2022-11-05T02:46:53.010Z,93562.31
2022-11-05T02:48:05.747Z,93561.72
2022-11-05T02:49:18.615Z,93566.97
2022-11-05T02:50:27.829Z,93564.69
2022-11-05T02:51:34.734Z,93566.44
2022-11-05T02:52:40.594Z,93563.84
2022-11-05T02:53:48.746Z,93563.69
2022-11-05T02:54:57.526Z,93565.56
2022-11-05T02:56:02.192Z,93565.63
2022-11-05T02:57:04.700Z,93573.91
2022-11-05T02:58:08.535Z,93569.47
2022-11-05T02:59:09.994Z,93574.84
2022-11-05T03:00:44.643Z,93577.03
2022-11-05T03:01:48.441Z,93580.31
2022-11-05T03:02:50.072Z,93572.91
2022-11-05T03:03:53.940Z,93575.25
2022-11-05T03:04:55.553Z,93572.53
2022-11-05T03:06:18.258Z,93577.50
2022-11-05T03:07:32.707Z,93568.75
2022-11-05T03:08:49.061Z,93576.63
2022-11-05T03:10:27.443Z,93574.34
2022-11-05T03:11:31.584Z,93579.75
2022-11-05T03:12:43.015Z,93570.91
2022-11-05T03:13:50.502Z,93580.59
2022-11-05T03:15:01.659Z,93578.59
2022-11-05T03:16:11.794Z,93576.16
2022-11-05T03:17:25.698Z,93572.53
2022-11-05T03:18:36.155Z,93572.38
2022-11-05T03:19:41.209Z,93573.00
2022-11-05T03:20:49.724Z,93578.34
2022-11-05T03:21:55.287Z,93578.44
2022-11-05T03:23:06.734Z,93585.19
2022-11-05T03:24:11.891Z,93585.59
2022-11-05T03:25:18.031Z,93579.66
2022-11-05T03:26:25.655Z,93587.31
2022-11-05T03:27:31.377Z,93586.34
2022-11-05T03:28:36.351Z,93583.31
2022-11-05T03:29:42.451Z,93584.38
2022-11-05T03:30:45.714Z,93587.09
2022-11-05T03:31:49.849Z,93586.03
2022-11-05T03:32:56.668Z,93586.19
2022-11-05T03:34:00.987Z,93593.75
2022-11-05T03:35:08.415Z,93592.16
2022-11-05T03:36:15.146Z,93588.03
2022-11-05T03:37:19.743Z,93588.81
2022-11-05T03:38:26.681Z,93592.75
2022-11-05T03:39:31.849Z,93591.94
2022-11-05T03:40:37.235Z,93589.22
2022-11-05T03:41:42.296Z,93597.56
2022-11-05T03:42:48.353Z,93589.94
2022-11-05T03:43:54.288Z,93592.75
2022-11-05T03:44:59.496Z,93599.97
2022-11-05T03:46:04.704Z,93596.44
2022-11-05T03:47:11.217Z,93590.94
2022-11-05T03:48:16.189Z,93600.94
2022-11-05T03:49:21.968Z,93594.59
2022-11-05T03:50:30.132Z,93597.31
2022-11-05T03:51:41.723Z,93599.28
2022-11-05T03:52:48.520Z,93596.63
2022-11-05T03:53:55.226Z,93599.00
2022-11-05T03:54:56.780Z,93602.94
2022-11-05T03:56:03.337Z,93601.63
2022-11-05T03:57:09.361Z,93599.41
2022-11-05T03:58:12.776Z,93603.91
2022-11-05T03:59:14.880Z,93606.34
2022-11-05T04:00:16.655Z,93611.56
2022-11-05T04:01:18.239Z,93612.69
2022-11-05T04:02:22.695Z,93614.38
2022-11-05T04:03:25.575Z,93611.00
2022-11-05T04:04:27.093Z,93615.94
2022-11-05T04:05:28.594Z,93615.91
2022-11-05T04:06:30.007Z,93618.84
2022-11-05T04:07:31.451Z,93615.03
2022-11-05T04:08:32.894Z,93618.78
2022-11-05T04:09:34.296Z,93620.47
2022-11-05T04:10:35.743Z,93628.28
2022-11-05T04:11:37.242Z,93620.88
2022-11-05T04:12:38.700Z,93620.03
2022-11-05T04:13:40.129Z,93621.13
2022-11-05T04:14:41.540Z,93625.47
2022-11-05T04:15:42.993Z,93623.66
2022-11-05T04:16:44.421Z,93625.28
2022-11-05T04:17:45.868Z,93629.69
2022-11-05T04:18:48.610Z,93630.97
2022-11-05T04:19:50.027Z,93624.19
2022-11-05T04:20:51.526Z,93631.66
2022-11-05T04:21:52.925Z,93631.88
2022-11-05T04:22:59.342Z,93638.25
2022-11-05T04:24:00.787Z,93635.66
2022-11-05T04:25:02.263Z,93638.97
2022-11-05T04:26:03.796Z,93636.91
2022-11-05T04:27:05.224Z,93643.97
2022-11-05T04:28:06.639Z,93645.09
2022-11-05T04:29:08.170Z,93642.09
2022-11-05T04:30:10.249Z,93643.38
2022-11-05T04:31:11.702Z,93645.44
2022-11-05T04:32:13.124Z,93647.06
2022-11-05T04:33:16.144Z,93648.72
2022-11-05T04:34:19.082Z,93645.97
2022-11-05T04:35:20.489Z,93646.72
2022-11-05T04:36:21.910Z,93647.56
2022-11-05T04:37:23.330Z,93652.50
2022-11-05T04:38:24.736Z,93650.94
2022-11-05T04:39:26.160Z,93652.63
2022-11-05T04:40:28.298Z,93651.06
2022-11-05T04:41:29.698Z,93648.31
2022-11-05T04:42:31.101Z,93651.59
2022-11-05T04:43:32.487Z,93654.47
2022-11-05T04:44:33.923Z,93651.59
2022-11-05T04:45:35.938Z,93657.97
2022-11-05T04:46:37.360Z,93654.44
2022-11-05T04:47:38.840Z,93649.00
2022-11-05T04:48:40.375Z,93647.59
2022-11-05T04:49:43.190Z,93650.69
2022-11-05T04:50:44.606Z,93661.38
2022-11-05T04:51:46.060Z,93664.31
2022-11-05T04:52:47.571Z,93654.66
2022-11-05T04:53:49.006Z,93660.16
2022-11-05T04:54:50.426Z,93657.94
2022-11-05T04:55:51.977Z,93656.38
2022-11-05T04:56:53.418Z,93665.13
2022-11-05T04:57:55.126Z,93661.25
2022-11-05T04:58:56.596Z,93659.91
2022-11-05T04:59:58.038Z,93661.53
2022-11-05T05:00:59.545Z,93668.03
2022-11-05T05:02:01.124Z,93666.41
2022-11-05T05:03:02.597Z,93658.69
2022-11-05T05:04:04.396Z,93669.16
2022-11-05T05:05:07.503Z,93671.31
2022-11-05T05:06:09.653Z,93670.78
2022-11-05T05:07:11.070Z,93664.59
2022-11-05T05:08:12.515Z,93663.44
2022-11-05T05:09:14.007Z,93664.56
2022-11-05T05:10:15.472Z,93667.00
2022-11-05T05:11:18.915Z,93666.47
2022-11-05T05:12:20.407Z,93673.34
2022-11-05T05:13:21.851Z,93675.28
2022-11-05T05:14:23.269Z,93669.38
2022-11-05T05:15:24.705Z,93666.59
2022-11-05T05:16:27.221Z,93676.97
2022-11-05T05:17:28.733Z,93671.72
2022-11-05T05:18:30.160Z,93667.06
2022-11-05T05:19:31.727Z,93672.44
2022-11-05T05:20:34.563Z,93676.22
2022-11-05T05:21:36.027Z,93669.31
2022-11-05T05:22:37.514Z,93673.69
2022-11-05T05:23:38.965Z,93678.59
2022-11-05T05:24:40.409Z,93673.34
2022-11-05T05:25:41.860Z,93677.31
2022-11-05T05:26:45.444Z,93681.09
2022-11-05T05:27:46.910Z,93688.09
2022-11-05T05:28:48.329Z,93677.97
2022-11-05T05:29:49.795Z,93689.31
2022-11-05T05:30:56.131Z,93687.19
2022-11-05T05:32:00.034Z,93696.41
2022-11-05T05:33:02.366Z,93689.31
2022-11-05T05:34:04.707Z,93694.78
2022-11-05T05:35:06.658Z,93696.53
2022-11-05T05:36:11.536Z,93692.88
2022-11-05T05:37:13.179Z,93701.72
2022-11-05T05:38:14.604Z,93703.34
2022-11-05T05:39:16.190Z,93705.53
2022-11-05T05:40:17.768Z,93706.00
2022-11-05T05:41:19.624Z,93701.91
2022-11-05T05:42:21.003Z,93697.19
2022-11-05T05:43:22.412Z,93699.94
2022-11-05T05:44:23.887Z,93700.00
2022-11-05T05:45:25.372Z,93699.22
2022-11-05T05:46:26.838Z,93708.41
2022-11-05T05:47:28.269Z,93705.78
2022-11-05T05:48:29.675Z,93699.41
2022-11-05T05:49:31.214Z,93709.22
2022-11-05T05:50:32.767Z,93706.25
2022-11-05T05:51:35.510Z,93708.03
2022-11-05T05:52:36.930Z,93717.97
2022-11-05T05:53:38.637Z,93714.75
2022-11-05T05:54:42.966Z,93711.25
2022-11-05T05:55:44.631Z,93715.38
2022-11-05T05:56:46.259Z,93723.19
2022-11-05T05:57:47.699Z,93719.09
2022-11-05T05:58:49.185Z,93719.78
2022-11-05T05:59:50.602Z,93725.25
2022-11-05T06:00:52.072Z,93725.56
2022-11-05T06:01:53.666Z,93717.31
2022-11-05T06:02:55.705Z,93721.25
2022-11-05T06:03:57.172Z,93726.72
2022-11-05T06:04:58.622Z,93732.34
2022-11-05T06:06:01.342Z,93724.97
2022-11-05T06:07:04.160Z,93734.78
2022-11-05T06:08:05.945Z,93726.38
2022-11-05T06:09:07.442Z,93731.63
2022-11-05T06:10:09.445Z,93728.78
2022-11-05T06:11:11.078Z,93727.16
2022-11-05T06:12:12.577Z,93730.06
2022-11-05T06:13:14.069Z,93731.53
2022-11-05T06:14:15.558Z,93727.03
2022-11-05T06:15:17.221Z,93735.25
2022-11-05T06:16:18.696Z,93736.16
2022-11-05T06:17:20.152Z,93740.41
2022-11-05T06:18:21.588Z,93743.53
2022-11-05T06:19:23.736Z,93738.94
2022-11-05T06:20:25.191Z,93737.38
2022-11-05T06:21:26.627Z,93737.00
2022-11-05T06:22:29.580Z,93748.16
2022-11-05T06:23:31.279Z,93739.75
2022-11-05T06:24:32.751Z,93745.69
2022-11-05T06:25:39.972Z,93742.91
2022-11-05T06:26:42.587Z,93748.94
2022-11-05T06:27:44.018Z,93748.78
2022-11-05T06:28:46.108Z,93753.00
2022-11-05T06:29:47.578Z,93755.63
2022-11-05T06:30:50.450Z,93760.47
2022-11-05T06:31:51.995Z,93761.50
2022-11-05T06:32:53.479Z,93770.00
2022-11-05T06:33:54.911Z,93767.25
2022-11-05T06:34:56.492Z,93769.34
2022-11-05T06:35:58.783Z,93769.88
2022-11-05T06:37:00.253Z,93768.72
2022-11-05T06:38:03.209Z,93769.47
2022-11-05T06:39:04.639Z,93768.50
2022-11-05T06:40:07.453Z,93779.81
2022-11-05T06:41:10.576Z,93775.09
2022-11-05T06:42:18.248Z,93774.22
2022-11-05T06:43:20.087Z,93772.72
2022-11-05T06:44:21.518Z,93767.44
2022-11-05T06:45:22.954Z,93774.50
2022-11-05T06:46:24.375Z,93775.50
2022-11-05T06:47:25.848Z,93773.63
2022-11-05T06:48:27.381Z,93777.91
2022-11-05T06:49:28.797Z,93787.50
2022-11-05T06:50:30.214Z,93788.00
2022-11-05T06:51:31.707Z,93794.94
2022-11-05T06:52:37.010Z,93796.88
2022-11-05T06:53:42.737Z,93793.25
2022-11-05T06:54:44.198Z,93786.75
2022-11-05T06:55:45.655Z,93795.44
2022-11-05T06:56:47.075Z,93797.56
2022-11-05T06:57:48.589Z,93797.56
2022-11-05T06:58:50.039Z,93800.88
2022-11-05T06:59:55.723Z,93798.56
2022-11-05T07:01:01.236Z,93796.94
2022-11-05T07:02:03.560Z,93800.84
2022-11-05T07:03:05.916Z,93799.06
2022-11-05T07:04:07.376Z,93804.31
2022-11-05T07:05:09.428Z,93803.16
2022-11-05T07:06:10.885Z,93803.16
2022-11-05T07:07:12.330Z,93799.06
2022-11-05T07:08:13.978Z,93797.44
2022-11-05T07:09:16.752Z,93807.25
2022-11-05T07:10:19.155Z,93807.25
2022-11-05T07:11:20.611Z,93805.28
2022-11-05T07:12:22.080Z,93809.72
2022-11-05T07:13:23.510Z,93814.94
2022-11-05T07:14:25.061Z,93812.50
2022-11-05T07:15:26.530Z,93818.38
2022-11-05T07:16:28.013Z,93816.41
2022-11-05T07:17:29.630Z,93820.03
2022-11-05T07:18:31.078Z,93821.16
2022-11-05T07:19:32.536Z,93818.53
2022-11-05T07:20:34.701Z,93828.88
2022-11-05T07:21:36.346Z,93821.81
2022-11-05T07:22:37.847Z,93827.38
2022-11-05T07:23:39.304Z,93830.81
2022-11-05T07:24:42.090Z,93832.94
2022-11-05T07:25:43.668Z,93838.66
2022-11-05T07:26:45.135Z,93837.03
2022-11-05T07:27:46.553Z,93841.47
2022-11-05T07:28:47.974Z,93842.13
2022-11-05T07:29:49.433Z,93847.69
2022-11-05T07:30:50.877Z,93845.06
2022-11-05T07:31:52.420Z,93842.94
2022-11-05T07:32:53.845Z,93838.97
2022-11-05T07:33:55.369Z,93844.69
2022-11-05T07:34:56.832Z,93851.41
2022-11-05T07:35:58.431Z,93848.59
2022-11-05T07:36:59.863Z,93850.38
2022-11-05T07:38:01.283Z,93853.03
2022-11-05T07:39:02.743Z,93851.72
2022-11-05T07:40:06.914Z,93859.56
2022-11-05T07:41:08.352Z,93853.31
2022-11-05T07:42:12.152Z,93850.16
2022-11-05T07:43:14.135Z,93850.97
2022-11-05T07:44:15.869Z,93855.19
2022-11-05T07:45:17.761Z,93841.44
2022-11-05T07:46:19.258Z,93848.00
2022-11-05T07:47:20.681Z,93855.34
2022-11-05T07:48:22.149Z,93845.84
2022-11-05T07:49:23.603Z,93850.56
2022-11-05T07:50:27.556Z,93848.28
2022-11-05T07:51:29.059Z,93841.91
2022-11-05T07:52:31.203Z,93850.63
2022-11-05T07:53:32.676Z,93856.25
2022-11-05T07:54:34.111Z,93862.47
2022-11-05T07:55:37.320Z,93848.56
2022-11-05T07:56:38.774Z,93853.44
2022-11-05T07:57:41.000Z,93856.88
2022-11-05T07:58:42.487Z,93859.03
2022-11-05T07:59:43.947Z,93864.88
2022-11-05T08:00:45.437Z,93868.50
2022-11-05T08:01:47.057Z,93867.38
2022-11-05T08:03:00.924Z,93871.81
2022-11-05T08:04:07.175Z,93878.75
2022-11-05T08:05:09.413Z,93880.41
2022-11-05T08:06:10.884Z,93871.03
2022-11-05T08:07:12.330Z,93870.34
2022-11-05T08:08:15.497Z,93876.94
2022-11-05T08:09:16.942Z,93882.38
2022-11-05T08:10:18.368Z,93885.66
2022-11-05T08:11:21.139Z,93882.84
2022-11-05T08:12:22.621Z,93880.69
2022-11-05T08:13:24.083Z,93884.00
2022-11-05T08:14:25.544Z,93887.75
2022-11-05T08:15:27.003Z,93882.38
2022-11-05T08:16:28.442Z,93889.56
2022-11-05T08:17:29.889Z,93888.09
2022-11-05T08:18:32.231Z,93887.28
2022-11-05T08:19:33.640Z,93878.59
2022-11-05T08:20:36.003Z,93881.56
2022-11-05T08:21:37.465Z,93882.16
2022-11-05T08:22:42.250Z,93886.75
2022-11-05T08:23:43.708Z,93890.19
2022-11-05T08:24:45.129Z,93892.66
2022-11-05T08:25:46.549Z,93893.41
2022-11-05T08:26:49.290Z,93889.66
2022-11-05T08:27:55.902Z,93891.63
2022-11-05T08:28:57.367Z,93894.09
2022-11-05T08:29:58.868Z,93892.94
2022-11-05T08:31:00.327Z,93897.06
2022-11-05T08:32:01.734Z,93892.81
2022-11-05T08:33:05.034Z,93897.91
2022-11-05T08:34:06.455Z,93893.47
2022-11-05T08:35:08.272Z,93899.06
2022-11-05T08:36:09.680Z,93902.16
2022-11-05T08:37:11.109Z,93896.38
2022-11-05T08:38:13.964Z,93894.44
2022-11-05T08:39:17.047Z,93894.25
2022-11-05T08:40:18.671Z,93897.88
2022-11-05T08:41:20.115Z,93899.66
2022-11-05T08:42:22.903Z,93902.78
2022-11-05T08:43:24.838Z,93901.63
2022-11-05T08:44:26.304Z,93909.16
2022-11-05T08:45:28.159Z,93898.00
2022-11-05T08:46:29.578Z,93901.97
2022-11-05T08:47:30.981Z,93905.25
2022-11-05T08:48:32.395Z,93910.50
2022-11-05T08:49:33.823Z,93907.50
2022-11-05T08:50:36.073Z,93907.03
2022-11-05T08:51:37.469Z,93912.91
2022-11-05T08:52:39.880Z,93916.16
2022-11-05T08:53:41.308Z,93913.81
2022-11-05T08:54:42.748Z,93913.06
2022-11-05T08:55:44.847Z,93912.22
2022-11-05T08:56:46.314Z,93915.97
2022-11-05T08:57:55.015Z,93922.91
2022-11-05T08:58:56.426Z,93918.66
2022-11-05T08:59:57.825Z,93910.94
2022-11-05T09:01:04.796Z,93920.13
2022-11-05T09:02:06.949Z,93918.59
2022-11-05T09:03:10.197Z,93917.84
2022-11-05T09:04:12.096Z,93909.25
2022-11-05T09:05:13.531Z,93916.44
2022-11-05T09:06:14.984Z,93913.00
2022-11-05T09:07:16.441Z,93915.44
2022-11-05T09:08:18.838Z,93917.44
2022-11-05T09:09:20.347Z,93909.84
2022-11-05T09:10:22.190Z,93908.22
2022-11-05T09:11:37.563Z,93907.19
2022-11-05T09:12:45.497Z,93907.44
2022-11-05T09:13:48.391Z,93911.06
2022-11-05T09:14:49.800Z,93909.25
2022-11-05T09:15:52.337Z,93914.66
2022-11-05T09:16:53.819Z,93915.09
2022-11-05T09:17:55.577Z,93914.69
2022-11-05T09:18:57.034Z,93915.50
2022-11-05T09:19:58.449Z,93911.03
2022-11-05T09:20:59.879Z,93918.81
2022-11-05T09:22:01.302Z,93917.84
2022-11-05T09:23:02.800Z,93920.41
2022-11-05T09:24:04.584Z,93919.13
2022-11-05T09:25:07.467Z,93918.66
2022-11-05T09:26:09.202Z,93916.56
2022-11-05T09:27:11.643Z,93920.47
2022-11-05T09:28:17.195Z,93932.78
2022-11-05T09:29:20.373Z,93931.47
2022-11-05T09:30:21.824Z,93936.22
2022-11-05T09:31:23.226Z,93927.06
2022-11-05T09:32:24.731Z,93933.78
2022-11-05T09:33:26.428Z,93940.66
2022-11-05T09:34:28.046Z,93939.84
2022-11-05T09:35:29.476Z,93944.94
2022-11-05T09:36:30.914Z,93946.38
2022-11-05T09:37:32.480Z,93939.84
2022-11-05T09:38:35.576Z,93949.00
2022-11-05T09:39:37.137Z,93948.19
2022-11-05T09:40:42.926Z,93946.19
2022-11-05T09:41:46.659Z,93952.09
2022-11-05T09:42:49.173Z,93949.84
2022-11-05T09:43:56.218Z,93954.91
2022-11-05T09:45:02.090Z,93948.47
2022-11-05T09:46:09.285Z,93959.16
2022-11-05T09:47:14.829Z,93947.19
2022-11-05T09:48:20.304Z,93952.03
2022-11-05T09:49:27.737Z,93944.34
2022-11-05T09:50:33.486Z,93953.88
2022-11-05T09:51:34.980Z,93958.16
2022-11-05T09:52:36.411Z,93953.19
2022-11-05T09:53:40.474Z,93948.94
2022-11-05T09:54:41.951Z,93957.28
2022-11-05T09:55:47.151Z,93954.00
2022-11-05T09:56:48.754Z,93956.28
2022-11-05T09:57:54.325Z,93961.69
2022-11-05T09:59:00.927Z,93952.84
2022-11-05T10:00:06.826Z,93955.97
2022-11-05T10:01:13.998Z,93952.59
2022-11-05T10:02:19.259Z,93950.56
2022-11-05T10:03:23.425Z,93962.25
2022-11-05T10:04:27.015Z,93957.16
2022-11-05T10:05:29.323Z,93962.41
2022-11-05T10:06:30.837Z,93954.66
2022-11-05T10:07:49.913Z,93953.03
2022-11-05T10:08:57.467Z,93959.03
2022-11-05T10:10:01.610Z,93963.16
2022-11-05T10:11:08.520Z,93959.38
2022-11-05T10:12:16.301Z,93960.19
2022-11-05T10:13:25.714Z,93962.94
2022-11-05T10:14:29.023Z,93960.91
2022-11-05T10:15:36.188Z,93963.72
2022-11-05T10:16:41.902Z,93963.28
2022-11-05T10:17:48.953Z,93969.63
2022-11-05T10:18:54.486Z,93965.94
2022-11-05T10:20:02.507Z,93961.41
2022-11-05T10:21:04.619Z,93970.16
2022-11-05T10:22:11.069Z,93969.06
2022-11-05T10:23:15.012Z,93964.47
2022-11-05T10:24:18.512Z,93958.78
2022-11-05T10:25:21.823Z,93965.41
2022-11-05T10:26:26.180Z,93968.69
2022-11-05T10:27:31.720Z,93964.94
2022-11-05T10:28:34.140Z,93970.19
2022-11-05T10:29:36.254Z,93967.22
2022-11-05T10:30:39.055Z,93968.00
2022-11-05T10:31:40.741Z,93971.41
2022-11-05T10:32:43.515Z,93978.56
2022-11-05T10:33:46.648Z,93974.88
2022-11-05T10:34:49.623Z,93970.56
2022-11-05T10:35:54.641Z,93975.59
2022-11-05T10:36:56.403Z,93973.75
2022-11-05T10:37:57.914Z,93972.78
2022-11-05T10:39:05.559Z,93972.91
2022-11-05T10:40:16.745Z,93978.28
2022-11-05T10:41:31.041Z,93976.69
2022-11-05T10:42:46.650Z,93982.94
2022-11-05T10:43:51.034Z,93977.03
2022-11-05T10:44:59.280Z,93974.91
2022-11-05T10:46:11.327Z,93976.59
2022-11-05T10:47:32.297Z,93983.06
2022-11-05T10:48:48.949Z,93978.13
2022-11-05T10:49:56.900Z,93978.69
2022-11-05T10:50:59.120Z,93978.69
2022-11-05T10:52:21.757Z,93982.81
2022-11-05T10:53:29.705Z,93982.81
2022-11-05T10:54:34.248Z,93976.91
2022-11-05T10:55:39.580Z,93975.91
2022-11-05T10:56:41.431Z,93973.75
2022-11-05T10:57:43.022Z,93980.56
2022-11-05T10:58:55.170Z,93974.88
2022-11-05T11:00:18.918Z,93978.44
2022-11-05T11:01:24.582Z,93979.28
2022-11-05T11:02:26.419Z,93980.59
2022-11-05T11:03:39.389Z,93981.94
2022-11-05T11:04:41.305Z,93982.97
2022-11-05T11:05:42.832Z,93978.63
2022-11-05T11:06:48.983Z,93980.72
2022-11-05T11:07:57.463Z,93979.28
2022-11-05T11:09:03.024Z,93979.91
2022-11-05T11:10:05.424Z,93983.94
2022-11-05T11:11:11.907Z,93978.50
2022-11-05T11:12:18.778Z,93986.91
2022-11-05T11:13:23.269Z,93983.63
2022-11-05T11:14:24.884Z,93990.94
2022-11-05T11:15:28.189Z,93984.91
2022-11-05T11:16:35.193Z,93992.41
2022-11-05T11:17:36.684Z,93995.53
2022-11-05T11:18:40.445Z,93989.66
2022-11-05T11:19:42.089Z,93995.59
2022-11-05T11:20:44.601Z,93992.16
2022-11-05T11:21:46.059Z,93998.09
2022-11-05T11:23:09.170Z,93998.28
2022-11-05T11:24:20.550Z,93996.28
2022-11-05T11:25:24.686Z,93997.63
2022-11-05T11:26:29.326Z,93995.78
2022-11-05T11:27:33.885Z,94000.03
2022-11-05T11:28:38.009Z,93994.94
2022-11-05T11:29:45.191Z,94000.22
2022-11-05T11:30:53.283Z,94004.63
2022-11-05T11:31:58.468Z,93993.72
2022-11-05T11:33:06.809Z,93995.19
2022-11-05T11:34:15.400Z,93994.22
2022-11-05T11:35:22.106Z,93999.63
2022-11-05T11:36:31.893Z,93996.00
2022-11-05T11:37:35.516Z,94002.19
2022-11-05T11:38:37.684Z,93998.09
2022-11-05T11:39:40.274Z,93998.94
2022-11-05T11:40:42.246Z,93991.38
2022-11-05T11:41:46.415Z,93996.97
2022-11-05T11:42:51.013Z,93990.28
2022-11-05T11:43:55.774Z,94000.09
2022-11-05T11:45:00.791Z,94002.06
2022-11-05T11:46:06.922Z,93994.97
2022-11-05T11:47:15.313Z,94000.56
2022-11-05T11:48:19.041Z,94005.13
2022-11-05T11:49:30.877Z,94011.88
2022-11-05T11:50:36.518Z,94009.81
2022-11-05T11:51:38.859Z,94009.47
2022-11-05T11:52:40.310Z,94010.75
2022-11-05T11:53:41.752Z,94007.97
2022-11-05T11:54:43.367Z,94015.19
2022-11-05T11:55:58.362Z,94012.44
2022-11-05T11:56:59.815Z,94017.66
2022-11-05T11:58:06.614Z,94011.59
2022-11-05T11:59:17.407Z,94015.69
2022-11-05T12:00:20.763Z,94010.09
2022-11-05T12:01:51.584Z,94010.06
2022-11-05T12:03:21.653Z,94015.00
2022-11-05T12:04:41.901Z,94013.19
2022-11-05T12:05:51.458Z,94014.00
2022-11-05T12:07:04.842Z,94012.81
2022-11-05T12:08:25.607Z,94022.28
2022-11-05T12:09:36.999Z,94011.97
2022-11-05T12:10:48.005Z,94012.69
2022-11-05T12:11:58.558Z,94011.56
2022-11-05T12:13:26.717Z,94016.00
2022-11-05T12:14:43.685Z,94005.41
2022-11-05T12:15:52.016Z,94002.03
2022-11-05T12:17:25.836Z,93998.66
2022-11-05T12:18:36.034Z,94002.88
2022-11-05T12:19:52.298Z,93999.22
2022-11-05T12:21:05.369Z,93999.00
2022-11-05T12:22:18.508Z,94006.94
2022-11-05T12:23:34.839Z,94001.03
2022-11-05T12:24:51.560Z,94004.03
2022-11-05T12:26:01.687Z,94004.44
2022-11-05T12:27:17.622Z,93997.91
2022-11-05T12:28:57.889Z,94004.97
2022-11-05T12:30:03.163Z,94013.84
2022-11-05T12:31:12.671Z,94015.66
2022-11-05T12:32:35.256Z,94013.97
2022-11-05T12:33:48.478Z,94018.28
2022-11-05T12:35:00.549Z,94012.50
2022-11-05T12:36:25.474Z,94014.19
2022-11-05T12:37:35.938Z,94009.47
2022-11-05T12:38:58.183Z,94016.84